Time;durP1;ratioP1;P1;durP2;ratioP2;P2;SDS_P1;SDS_P2;PMS_P1;PMS_P2;Temp;Humidity;BMP_temperature;BMP_pressure;BME280_temperature;BME280_humidity;BME280_pressure;Samples;Min_cycle;Max_cycle;Signal;HPM_P1;HPM_P2
2023/02/28 00:00:38;;;;;;;23.60;13.90;;;;;;;-2.52;56.48;101572.94;103276;1257;96806;-75
2023/02/28 00:03:17;;;;;;;28.60;14.90;;;;;;;-2.53;56.65;101571.02;103222;1254;109811;-76
2023/02/28 00:05:47;;;;;;;28.10;14.00;;;;;;;-2.54;56.49;101573.85;102327;1254;1003491;-76
2023/02/28 00:08:23;;;;;;;25.90;14.70;;;;;;;-2.54;56.63;101573.16;103260;1256;96461;-75
2023/02/28 00:10:51;;;;;;;23.70;13.90;;;;;;;-2.56;56.77;101571.55;102373;1257;1003082;-77
2023/02/28 00:13:18;;;;;;;23.90;13.60;;;;;;;-2.57;56.77;101572.05;103225;1258;96461;-76
2023/02/28 00:16:09;;;;;;;24.00;14.10;;;;;;;-2.57;57.00;101575.08;101637;1253;1003467;-76
2023/02/28 00:18:36;;;;;;;25.00;13.60;;;;;;;-2.58;56.83;101576.27;103263;1256;107163;-76
2023/02/28 00:21:07;;;;;;;23.40;13.10;;;;;;;-2.59;56.58;101577.41;103319;1255;96393;-76
2023/02/28 00:23:35;;;;;;;25.90;14.10;;;;;;;-2.60;56.76;101579.77;101635;1257;1003438;-76
2023/02/28 00:26:02;;;;;;;25.40;13.50;;;;;;;-2.60;56.85;101585.37;103223;1257;96458;-76
2023/02/28 00:28:30;;;;;;;20.90;12.50;;;;;;;-2.61;56.88;101583.13;102439;1253;1003082;-76
2023/02/28 00:31:17;;;;;;;24.00;13.80;;;;;;;-2.62;57.20;101583.91;103158;1255;106903;-75
2023/02/28 00:33:55;;;;;;;21.20;12.40;;;;;;;-2.63;57.19;101584.91;103088;1257;140053;-74
2023/02/28 00:36:22;;;;;;;22.40;12.40;;;;;;;-2.63;57.11;101585.41;103246;1254;107512;-74
2023/02/28 00:38:50;;;;;;;27.20;14.30;;;;;;;-2.63;56.89;101587.11;103196;1255;96576;-73
2023/02/28 00:41:17;;;;;;;25.50;14.50;;;;;;;-2.63;57.21;101584.87;103216;1256;137907;-75
2023/02/28 00:43:47;;;;;;;29.20;15.00;;;;;;;-2.65;57.49;101583.61;103212;1256;107480;-75
2023/02/28 00:46:14;;;;;;;25.30;13.70;;;;;;;-2.64;57.33;101584.14;102504;1253;1003422;-76
2023/02/28 00:48:42;;;;;;;23.70;13.90;;;;;;;-2.65;57.71;101581.91;103215;1254;109038;-75
2023/02/28 00:51:29;;;;;;;24.60;13.50;;;;;;;-2.64;57.80;101582.27;102365;1255;1003562;-74
2023/02/28 00:54:18;;;;;;;26.20;13.40;;;;;;;-2.65;58.10;101580.73;103172;1257;111076;-74
2023/02/28 00:56:54;;;;;;;23.10;11.90;;;;;;;-2.66;57.80;101576.09;103225;1255;107227;-74
2023/02/28 00:59:34;;;;;;;20.70;12.80;;;;;;;-2.65;57.77;101578.86;102441;1257;1003752;-75
2023/02/28 01:02:05;;;;;;;20.80;11.30;;;;;;;-2.64;57.74;101578.39;102551;1256;1002684;-75
2023/02/28 01:04:43;;;;;;;18.30;11.00;;;;;;;-2.64;57.48;101576.20;103174;1254;139094;-75
2023/02/28 01:07:11;;;;;;;17.40;10.60;;;;;;;-2.62;57.81;101578.98;103154;1258;110003;-75
2023/02/28 01:09:59;;;;;;;18.10;10.90;;;;;;;-2.60;57.75;101574.48;103009;1260;138883;-75
2023/02/28 01:12:46;;;;;;;19.10;11.30;;;;;;;-2.58;57.48;101576.77;102429;1259;1003211;-75
2023/02/28 01:15:15;;;;;;;18.60;11.10;;;;;;;-2.57;57.46;101574.58;102452;1254;1003020;-74
2023/02/28 01:17:44;;;;;;;16.80;10.60;;;;;;;-2.56;57.43;101577.18;103067;1257;140318;-75
2023/02/28 01:20:32;;;;;;;19.40;11.50;;;;;;;-2.55;57.63;101577.89;103303;1255;111161;-75
2023/02/28 01:23:19;;;;;;;19.30;10.50;;;;;;;-2.53;57.49;101575.58;101554;1255;1003584;-75
2023/02/28 01:25:50;;;;;;;17.00;10.60;;;;;;;-2.53;57.37;101579.86;103234;1257;96568;-75
2023/02/28 01:28:37;;;;;;;21.20;11.30;;;;;;;-2.53;57.39;101573.06;103103;1256;137901;-75
2023/02/28 01:31:08;;;;;;;18.40;11.10;;;;;;;-2.52;57.22;101569.88;103308;1255;96351;-77
2023/02/28 01:33:48;;;;;;;19.90;11.60;;;;;;;-2.53;57.22;101576.45;103358;1258;108950;-74
2023/02/28 01:36:27;;;;;;;22.10;13.20;;;;;;;-2.57;57.42;101581.05;103142;1255;107690;-75
2023/02/28 01:38:57;;;;;;;24.70;14.60;;;;;;;-2.58;57.84;101580.67;103136;1255;96342;-76
2023/02/28 01:41:35;;;;;;;;;;;;;;;-2.58;58.35;101581.34;103070;1254;137972;-74
2023/02/28 01:44:59;;;;;;;29.40;13.70;;;;;;;-2.60;58.45;101583.33;103262;1257;96503;-77
2023/02/28 01:47:35;;;;;;;22.60;13.80;;;;;;;-2.61;58.53;101583.79;102274;1260;1003014;-76
2023/02/28 01:50:26;;;;;;;23.30;13.50;;;;;;;-2.61;58.61;101583.44;103078;1260;109004;-76
2023/02/28 01:53:18;;;;;;;24.10;13.60;;;;;;;-2.62;58.48;101583.75;103148;1256;138065;-76
2023/02/28 01:55:50;;;;;;;21.80;12.90;;;;;;;-2.63;58.34;101581.52;103291;1255;111152;-76
2023/02/28 01:58:38;;;;;;;23.70;12.80;;;;;;;-2.63;58.49;101583.69;103141;1255;138690;-77
2023/02/28 02:01:06;;;;;;;24.90;13.60;;;;;;;-2.63;58.71;101581.48;102553;1257;1002503;-76
2023/02/28 02:03:57;;;;;;;23.90;13.00;;;;;;;-2.63;58.82;101584.05;103177;1256;107719;-76
2023/02/28 02:06:34;;;;;;;23.90;12.90;;;;;;;-2.65;58.83;101579.73;103357;1257;97041;-76
2023/02/28 02:09:02;;;;;;;22.10;12.50;;;;;;;-2.65;58.91;101578.34;103308;1254;107700;-76
2023/02/28 02:11:46;;;;;;;23.10;12.90;;;;;;;-2.64;59.17;101578.54;103179;1257;138967;-76
2023/02/28 02:15:00;;;;;;;27.70;14.10;;;;;;;-2.64;59.09;101579.06;103113;1254;110844;-76
2023/02/28 02:17:53;;;;;;;22.40;13.00;;;;;;;-2.63;58.48;101581.30;102813;1257;139001;-76
2023/02/28 02:21:14;;;;;;;21.00;12.80;;;;;;;-2.62;58.82;101582.54;103079;1259;96454;-76
2023/02/28 02:24:37;;;;;;;19.00;11.50;;;;;;;-2.61;59.02;101583.45;102893;1262;138796;-76
2023/02/28 02:27:40;;;;;;;23.80;12.30;;;;;;;-2.59;59.31;101585.39;103045;1260;97217;-75
2023/02/28 02:30:48;;;;;;;23.10;11.90;;;;;;;-2.60;59.12;101583.67;102200;1258;1003314;-75
2023/02/28 02:33:38;;;;;;;21.70;11.70;;;;;;;-2.57;58.92;101584.78;102822;1258;107446;-75
2023/02/28 02:36:15;;;;;;;18.10;10.50;;;;;;;-2.55;58.70;101583.01;102992;1260;138096;-75
2023/02/28 02:39:00;;;;;;;19.10;11.00;;;;;;;-2.54;58.77;101581.51;103063;1259;106814;-75
2023/02/28 02:41:46;;;;;;;20.20;11.70;;;;;;;-2.54;58.57;101580.66;103416;1261;138246;-75
2023/02/28 02:44:41;;;;;;;23.20;12.90;;;;;;;-2.55;58.62;101584.02;103022;1258;110034;-75
2023/02/28 02:47:12;;;;;;;21.10;12.90;;;;;;;-2.58;59.11;101585.95;102160;1262;1003822;-75
2023/02/28 02:49:41;;;;;;;26.60;14.00;;;;;;;-2.59;59.34;101586.42;103121;1257;96339;-75
2023/02/28 02:52:35;;;;;;;23.90;13.70;;;;;;;-2.61;59.41;101586.17;102239;1259;1003313;-75
2023/02/28 02:55:24;;;;;;;27.10;13.90;;;;;;;-2.64;59.44;101592.52;103142;1253;96455;-74
2023/02/28 02:57:55;;;;;;;25.70;14.50;;;;;;;-2.67;59.56;101591.38;103325;1255;110585;-74
2023/02/28 03:00:27;;;;;;;26.80;15.60;;;;;;;-2.68;59.91;101593.02;103086;1255;137924;-74
2023/02/28 03:02:55;;;;;;;27.40;14.90;;;;;;;-2.71;59.82;101595.27;103092;1259;97002;-74
2023/02/28 03:05:31;;;;;;;26.50;15.00;;;;;;;-2.72;60.23;101592.64;102982;1255;138141;-75
2023/02/28 03:08:18;;;;;;;27.80;15.30;;;;;;;-2.74;60.39;101598.02;103094;1258;96436;-75
2023/02/28 03:11:08;;;;;;;27.30;15.30;;;;;;;-2.76;60.60;101595.05;102991;1259;138943;-74
2023/02/28 03:14:15;;;;;;;30.00;15.00;;;;;;;-2.77;60.68;101592.98;103050;1260;107747;-75
2023/02/28 03:16:52;;;;;;;;;;;;;;;-2.79;60.78;101595.63;103102;1259;138993;-75
2023/02/28 03:19:53;;;;;;;27.50;15.60;;;;;;;-2.80;60.95;101594.38;103199;1255;107612;-75
2023/02/28 03:22:52;;;;;;;29.80;16.30;;;;;;;-2.79;61.16;101590.66;103190;1254;138786;-75
2023/02/28 03:25:28;;;;;;;30.30;16.10;;;;;;;-2.79;61.33;101591.19;103347;1256;109070;-75
2023/02/28 03:28:02;;;;;;;34.10;17.90;;;;;;;-2.77;61.57;101596.72;103309;1256;106564;-74
2023/02/28 03:30:57;;;;;;;31.60;16.20;;;;;;;-2.74;61.71;101591.73;102403;1257;1003287;-75
2023/02/28 03:33:28;;;;;;;32.30;16.60;;;;;;;-2.71;61.50;101595.58;103140;1255;106877;-74
2023/02/28 03:36:12;;;;;;;29.70;15.70;;;;;;;-2.69;61.53;101595.88;103194;1254;138593;-74
2023/02/28 03:38:43;;;;;;;27.60;14.90;;;;;;;-2.67;61.74;101600.23;102475;1254;1002719;-74
2023/02/28 03:41:36;;;;;;;30.50;15.00;;;;;;;-2.65;61.57;101601.48;103086;1257;138853;-74
2023/02/28 03:44:17;;;;;;;28.00;14.70;;;;;;;-2.65;61.52;101599.98;102436;1253;1002986;-74
2023/02/28 03:46:50;;;;;;;31.40;15.50;;;;;;;-2.64;61.45;101598.80;102417;1255;1003509;-75
2023/02/28 03:49:43;;;;;;;28.70;15.80;;;;;;;-2.65;61.79;101603.54;103342;1254;96326;-75
2023/02/28 03:52:23;;;;;;;26.70;15.70;;;;;;;-2.67;61.72;101607.05;103172;1255;138254;-74
2023/02/28 03:54:56;;;;;;;39.40;17.00;;;;;;;-2.68;61.90;101607.12;103204;1255;107576;-75
2023/02/28 03:57:33;;;;;;;32.10;17.10;;;;;;;-2.71;61.97;101607.33;103480;1255;97048;-74
2023/02/28 04:00:09;;;;;;;31.40;17.30;;;;;;;-2.76;62.31;101607.98;103448;1256;138026;-75
2023/02/28 04:02:52;;;;;;;36.00;18.50;;;;;;;-2.81;62.20;101609.49;103330;1256;96550;-75
2023/02/28 04:05:25;;;;;;;34.30;17.80;;;;;;;-2.83;62.30;101609.55;103201;1258;138203;-75
2023/02/28 04:08:12;;;;;;;33.20;17.60;;;;;;;-2.86;62.54;101611.48;102406;1257;1002482;-75
2023/02/28 04:10:40;;;;;;;38.90;18.50;;;;;;;-2.88;62.49;101610.01;102454;1255;1003811;-74
2023/02/28 04:13:07;;;;;;;35.90;18.30;;;;;;;-2.89;62.41;101612.35;103236;1257;108470;-75
2023/02/28 04:15:42;;;;;;;37.40;18.40;;;;;;;-2.89;62.57;101614.37;103103;1257;96554;-75
2023/02/28 04:18:12;;;;;;;36.40;19.10;;;;;;;-2.90;62.83;101616.89;103058;1253;138582;-75
2023/02/28 04:20:39;;;;;;;40.40;18.50;;;;;;;-2.92;62.94;101615.27;103099;1258;107351;-75
2023/02/28 04:23:09;;;;;;;37.70;19.20;;;;;;;-2.93;62.65;101613.21;102973;1254;138727;-75
2023/02/28 04:26:00;;;;;;;38.20;18.80;;;;;;;-2.92;62.90;101614.44;102393;1257;1003066;-75
2023/02/28 04:28:46;;;;;;;39.80;19.60;;;;;;;-2.91;63.27;101617.00;103127;1258;138998;-75
2023/02/28 04:31:22;;;;;;;37.80;20.20;;;;;;;-2.92;63.10;101617.66;103167;1253;110935;-75
2023/02/28 04:34:10;;;;;;;40.70;20.80;;;;;;;-2.93;63.54;101616.95;101548;1257;1003628;-75
2023/02/28 04:36:48;;;;;;;42.90;21.30;;;;;;;-2.94;63.25;101616.55;102425;1257;1003001;-75
2023/02/28 04:39:35;;;;;;;44.10;21.40;;;;;;;-2.99;63.41;101614.98;103246;1255;108909;-75
2023/02/28 04:42:06;;;;;;;41.80;21.40;;;;;;;-3.04;63.89;101613.42;103009;1257;138802;-75
2023/02/28 04:44:53;;;;;;;44.90;21.10;;;;;;;-3.03;64.10;101618.73;102436;1255;1003688;-75
2023/02/28 04:47:30;;;;;;;38.70;19.90;;;;;;;-3.02;63.87;101619.79;102336;1255;1003537;-75
2023/02/28 04:49:58;;;;;;;40.60;20.30;;;;;;;-2.99;63.79;101618.02;103170;1255;97009;-75
2023/02/28 04:52:29;;;;;;;40.20;19.10;;;;;;;-2.97;63.71;101619.83;103063;1258;139195;-75
2023/02/28 04:55:08;;;;;;;37.70;20.10;;;;;;;-2.97;63.82;101619.50;102388;1254;1003144;-75
2023/02/28 04:57:36;;;;;;;45.00;21.60;;;;;;;-2.97;63.96;101624.42;103037;1257;109627;-75
2023/02/28 05:00:16;;;;;;;44.80;22.10;;;;;;;-2.98;64.15;101621.80;102926;1260;138855;-75
2023/02/28 05:03:04;;;;;;;42.00;20.80;;;;;;;-2.98;64.08;101622.85;103469;1259;96691;-75
2023/02/28 05:05:32;;;;;;;41.80;21.10;;;;;;;-2.96;64.35;101620.72;102343;1254;1002727;-75
2023/02/28 05:08:02;;;;;;;39.30;21.70;;;;;;;-2.95;64.01;101621.12;103213;1254;96440;-75
2023/02/28 05:10:29;;;;;;;44.80;22.70;;;;;;;-2.96;64.05;101626.68;103188;1257;139076;-75
2023/02/28 05:13:05;;;;;;;45.30;23.70;;;;;;;-3.00;64.13;101627.36;103196;1258;107158;-75
2023/02/28 05:15:53;;;;;;;43.70;21.70;;;;;;;-2.99;64.21;101632.84;103333;1256;96518;-75
2023/02/28 05:18:41;;;;;;;34.50;18.20;;;;;;;-2.97;64.40;101634.97;103079;1255;108101;-75
2023/02/28 05:21:29;;;;;;;32.80;18.60;;;;;;;-2.93;64.52;101646.52;103154;1255;96557;-75
2023/02/28 05:24:13;;;;;;;48.30;22.00;;;;;;;-2.91;64.45;101651.08;102958;1258;138155;-72
2023/02/28 05:26:42;;;;;;;45.20;23.10;;;;;;;-2.92;64.52;101653.39;102410;1258;1002688;-73
2023/02/28 05:29:15;;;;;;;47.10;22.50;;;;;;;-2.95;64.29;101658.20;103034;1260;138321;-72
2023/02/28 05:32:02;;;;;;;44.60;23.00;;;;;;;-2.95;64.51;101657.35;102445;1256;1003314;-72
2023/02/28 05:34:33;;;;;;;40.40;20.80;;;;;;;-2.94;64.57;101660.27;103062;1257;138827;-71
2023/02/28 05:37:00;;;;;;;43.10;20.80;;;;;;;-2.92;64.47;101662.59;103205;1257;108553;-73
2023/02/28 05:39:48;;;;;;;42.60;20.20;;;;;;;-2.88;64.66;101664.99;103129;1266;107306;-77
2023/02/28 05:42:34;;;;;;;48.20;22.10;;;;;;;-2.84;64.27;101664.14;102476;1254;1004147;-70
2023/02/28 05:45:03;;;;;;;40.40;22.40;;;;;;;-2.82;64.39;101671.05;103353;1256;107292;-68
2023/02/28 05:47:33;;;;;;;43.90;22.40;;;;;;;-2.80;64.27;101669.98;102460;1253;1002641;-74
2023/02/28 05:50:03;;;;;;;43.80;22.90;;;;;;;-2.72;64.50;101668.27;103351;1255;109876;-74
2023/02/28 05:52:38;;;;;;;39.10;21.60;;;;;;;-2.60;64.43;101671.52;103097;1255;139116;-75
2023/02/28 05:55:26;;;;;;;42.40;21.50;;;;;;;-2.44;64.49;101670.70;103262;1257;96551;-74
2023/02/28 05:58:05;;;;;;;40.40;22.10;;;;;;;-2.27;64.26;101676.19;103318;1257;108096;-74
2023/02/28 06:00:38;;;;;;;45.00;22.60;;;;;;;-2.11;64.18;101678.57;102459;1253;1002917;-73
2023/02/28 06:03:18;;;;;;;45.70;23.90;;;;;;;-1.91;64.02;101685.73;103248;1254;109345;-73
2023/02/28 06:06:04;;;;;;;39.00;21.80;;;;;;;-1.67;63.87;101685.33;103183;1256;138773;-76
2023/02/28 06:08:34;;;;;;;38.20;21.20;;;;;;;-1.44;63.29;101687.27;103059;1260;96992;-74
2023/02/28 06:11:05;;;;;;;47.40;22.90;;;;;;;-1.18;63.24;101692.05;103238;1252;138614;-74
2023/02/28 06:13:43;;;;;;;43.10;23.30;;;;;;;-0.81;62.91;101688.13;103294;1253;96397;-73
2023/02/28 06:16:31;;;;;;;41.30;22.40;;;;;;;-0.33;62.82;101683.89;102523;1255;1003375;-74
2023/02/28 06:19:02;;;;;;;40.60;23.20;;;;;;;0.21;62.73;101682.98;102504;1257;1003466;-73
2023/02/28 06:21:30;;;;;;;40.30;22.70;;;;;;;0.78;62.08;101681.38;102668;1254;1002815;-74
2023/02/28 06:24:18;;;;;;;40.90;21.90;;;;;;;1.30;60.65;101684.45;103240;1256;138352;-74
2023/02/28 06:26:51;;;;;;;40.30;22.80;;;;;;;1.62;59.40;101681.60;103345;1254;96540;-75
2023/02/28 06:29:18;;;;;;;41.30;22.50;;;;;;;2.00;59.11;101686.20;103259;1256;137657;-78
2023/02/28 06:31:46;;;;;;;38.90;22.30;;;;;;;2.47;58.22;101685.48;103311;1256;108781;-76
2023/02/28 06:34:21;;;;;;;;;;;;;;;2.96;57.17;101678.34;103283;1256;137914;-69
2023/02/28 06:36:53;;;;;;;45.00;22.10;;;;;;;3.41;57.06;101674.48;103254;1257;106827;-70
2023/02/28 06:39:21;;;;;;;37.00;21.20;;;;;;;4.00;55.92;101669.73;103315;1256;96540;-71
2023/02/28 06:41:51;;;;;;;32.30;20.20;;;;;;;4.66;55.26;101664.92;103261;1251;138416;-71
2023/02/28 06:44:22;;;;;;;35.80;18.70;;;;;;;5.34;53.59;101657.73;103319;1257;109347;-72
2023/02/28 06:46:50;;;;;;;34.40;19.20;;;;;;;5.93;52.18;101656.30;103263;1256;137761;-72
2023/02/28 06:49:25;;;;;;;31.00;19.20;;;;;;;6.48;50.75;101651.92;103471;1255;108467;-72
2023/02/28 06:51:53;;;;;;;32.90;18.50;;;;;;;7.21;50.09;101641.96;103331;1256;96441;-72
2023/02/28 06:54:20;;;;;;;33.20;18.60;;;;;;;8.12;49.22;101634.88;103181;1252;137676;-66
2023/02/28 06:56:48;;;;;;;33.00;18.90;;;;;;;9.10;47.81;101628.98;103073;1254;355999;-76
2023/02/28 06:59:16;;;;;;;29.40;18.10;;;;;;;10.09;46.39;101622.30;102496;1257;1002990;-77
2023/02/28 07:01:43;;;;;;;26.50;16.30;;;;;;;10.96;44.92;101620.43;103349;1254;108215;-73
2023/02/28 07:04:10;;;;;;;26.20;15.10;;;;;;;11.86;43.69;101614.15;103326;1256;96427;-73
2023/02/28 07:06:38;;;;;;;25.50;15.30;;;;;;;12.78;42.52;101608.88;103426;1256;110145;-72
2023/02/28 07:09:06;;;;;;;22.90;14.10;;;;;;;13.65;41.52;101611.59;103352;1258;108046;-72
2023/02/28 07:11:34;;;;;;;19.30;13.10;;;;;;;14.61;40.65;101605.70;103961;1255;138553;-71
2023/02/28 07:14:01;;;;;;;18.70;12.90;;;;;;;15.61;39.84;101598.39;102540;1258;1003133;-74
2023/02/28 07:16:28;;;;;;;21.10;12.60;;;;;;;16.50;38.93;101596.11;103156;1254;138468;-72
2023/02/28 07:18:56;;;;;;;21.00;10.60;;;;;;;17.23;37.95;101602.24;103329;1256;108382;-72
2023/02/28 07:21:23;;;;;;;14.90;10.30;;;;;;;17.64;36.99;101601.53;103299;1254;107525;-73
2023/02/28 07:23:51;;;;;;;15.20;10.10;;;;;;;17.97;35.59;101597.91;103402;1253;138033;-72
2023/02/28 07:26:20;;;;;;;12.80;9.20;;;;;;;18.49;34.61;101593.41;103259;1255;107587;-73
2023/02/28 07:28:49;;;;;;;16.10;8.60;;;;;;;19.13;34.01;101592.13;103162;1257;138137;-71
2023/02/28 07:31:18;;;;;;;10.70;7.90;;;;;;;19.89;33.51;101593.98;103334;1257;108937;-72
2023/02/28 07:33:45;;;;;;;10.80;7.70;;;;;;;20.46;32.69;101586.47;103459;1257;107697;-71
2023/02/28 07:36:15;;;;;;;8.90;6.60;;;;;;;20.98;31.88;101587.80;103233;1257;137729;-71
2023/02/28 07:38:43;;;;;;;8.70;6.40;;;;;;;21.51;30.66;101585.42;103443;1254;107557;-71
2023/02/28 07:41:13;;;;;;;11.50;7.00;;;;;;;21.95;30.03;101579.18;103213;1252;138367;-71
2023/02/28 07:43:41;;;;;;;8.00;6.30;;;;;;;22.32;29.62;101576.84;103273;1257;110215;-73
2023/02/28 07:46:10;;;;;;;9.40;5.80;;;;;;;22.60;29.03;101574.55;103381;1257;108457;-72
2023/02/28 07:48:38;;;;;;;8.30;5.90;;;;;;;22.80;28.41;101574.04;104172;1251;94521;-71
2023/02/28 07:51:06;;;;;;;10.00;6.80;;;;;;;23.15;28.18;101575.60;103353;1253;109218;-70
2023/02/28 07:53:33;;;;;;;10.00;7.50;;;;;;;23.42;27.61;101574.89;103197;1254;137999;-72
2023/02/28 07:56:01;;;;;;;8.60;7.10;;;;;;;23.66;27.53;101576.18;103406;1254;110053;-72
2023/02/28 07:58:30;;;;;;;7.70;6.00;;;;;;;23.97;27.12;101580.69;103175;1254;137776;-71
2023/02/28 08:00:58;;;;;;;9.40;5.80;;;;;;;24.02;26.03;101583.23;103364;1256;96537;-73
2023/02/28 08:03:25;;;;;;;7.50;5.90;;;;;;;23.54;25.28;101579.41;103401;1251;106994;-71
2023/02/28 08:05:53;;;;;;;13.90;5.80;;;;;;;23.25;24.97;101583.79;103116;1254;137627;-73
2023/02/28 08:08:21;;;;;;;7.50;5.40;;;;;;;22.80;24.34;101586.27;103299;1254;111190;-71
2023/02/28 08:10:48;;;;;;;7.30;5.50;;;;;;;22.26;24.57;101586.02;103261;1254;138152;-70
2023/02/28 08:13:15;;;;;;;7.80;5.60;;;;;;;21.96;24.20;101592.73;103465;1257;96421;-71
2023/02/28 08:15:45;;;;;;;10.10;5.90;;;;;;;21.79;24.52;101592.52;103408;1255;107973;-68
2023/02/28 08:18:13;;;;;;;7.20;6.00;;;;;;;21.97;24.82;101588.75;103295;1255;139472;-72
2023/02/28 08:20:40;;;;;;;8.40;6.60;;;;;;;22.30;24.90;101587.52;103399;1257;111057;-72
2023/02/28 08:23:07;;;;;;;10.30;7.30;;;;;;;22.54;24.63;101583.63;103266;1256;138334;-73
2023/02/28 08:25:34;;;;;;;9.40;6.60;;;;;;;22.77;24.68;101578.81;103531;1257;95314;-72
2023/02/28 08:28:02;;;;;;;11.40;6.70;;;;;;;23.11;24.79;101583.44;103385;1251;107691;-73
2023/02/28 08:30:29;;;;;;;12.10;7.20;;;;;;;23.35;24.66;101581.05;103292;1254;137581;-73
2023/02/28 08:32:56;;;;;;;8.80;6.30;;;;;;;23.45;24.22;101578.59;103321;1254;109734;-78
2023/02/28 08:35:23;;;;;;;12.80;7.20;;;;;;;23.57;23.98;101582.12;103763;1251;137731;-81
2023/02/28 08:37:51;;;;;;;9.20;6.70;;;;;;;23.67;23.44;101580.03;103338;1256;96417;-80
2023/02/28 08:40:19;;;;;;;11.30;7.70;;;;;;;23.53;23.01;101584.64;103204;1254;138361;-76
2023/02/28 08:42:46;;;;;;;12.70;6.90;;;;;;;23.29;22.98;101580.52;103929;1256;96463;-78
2023/02/28 08:45:15;;;;;;;11.80;7.70;;;;;;;23.04;23.07;101584.62;103437;1254;110580;-79
2023/02/28 08:47:42;;;;;;;12.40;7.30;;;;;;;22.98;22.92;101583.73;103648;1254;137959;-75
2023/02/28 08:50:12;;;;;;;8.90;6.30;;;;;;;22.84;23.07;101583.92;103905;1251;96448;-76
2023/02/28 08:52:40;;;;;;;10.90;6.80;;;;;;;22.22;22.36;101591.17;104029;1254;138118;-76
2023/02/28 08:55:09;;;;;;;9.60;6.70;;;;;;;21.67;22.56;101595.13;103416;1254;96482;-77
2023/02/28 08:57:37;;;;;;;7.80;6.50;;;;;;;21.36;22.59;101595.66;103570;1254;109315;-77
2023/02/28 09:00:07;;;;;;;9.60;7.10;;;;;;;20.77;22.30;101597.40;103118;1251;137875;-75
2023/02/28 09:02:34;;;;;;;9.70;7.00;;;;;;;19.98;22.26;101605.18;103529;1257;96339;-75
2023/02/28 09:05:02;;;;;;;11.70;7.50;;;;;;;19.79;22.79;101601.36;103141;1254;137564;-75
2023/02/28 09:07:30;;;;;;;12.80;7.00;;;;;;;19.49;22.72;101597.34;103334;1258;96482;-75
2023/02/28 09:09:57;;;;;;;10.50;7.10;;;;;;;19.40;22.90;101600.24;103379;1254;110942;-74
2023/02/28 09:12:26;;;;;;;12.60;7.40;;;;;;;19.40;23.12;101598.63;103847;1254;138343;-75
2023/02/28 09:14:54;;;;;;;11.20;7.10;;;;;;;19.68;23.14;101600.12;103151;1254;96446;-78
2023/02/28 09:17:22;;;;;;;12.10;7.00;;;;;;;20.05;23.51;101603.41;103311;1257;137991;-78
2023/02/28 09:19:57;;;;;;;15.80;7.50;;;;;;;20.56;23.73;101608.45;103448;1254;96871;-78
2023/02/28 09:22:24;;;;;;;11.80;7.40;;;;;;;20.77;23.53;101601.29;103823;1253;138101;-75
2023/02/28 09:24:51;;;;;;;11.70;7.20;;;;;;;20.79;23.27;101602.79;104709;1251;107682;-73
2023/02/28 09:27:19;;;;;;;10.70;7.10;;;;;;;20.86;23.50;101604.90;104700;1254;94374;-72
2023/02/28 09:29:46;;;;;;;12.80;6.60;;;;;;;21.00;23.63;101606.27;103951;1256;138568;-71
2023/02/28 09:32:13;;;;;;;10.70;6.70;;;;;;;20.93;23.76;101604.35;103288;1254;96462;-66
2023/02/28 09:34:41;;;;;;;10.20;6.90;;;;;;;20.87;24.09;101607.53;103964;1255;137959;-68
2023/02/28 09:37:08;;;;;;;8.90;6.70;;;;;;;20.73;23.46;101599.39;103346;1254;107948;-69
2023/02/28 09:39:35;;;;;;;8.90;6.50;;;;;;;20.67;23.45;101599.05;103275;1254;96335;-68
2023/02/28 09:42:05;;;;;;;11.50;7.20;;;;;;;20.59;23.37;101599.79;103174;1251;138036;-68
2023/02/28 09:44:36;;;;;;;9.80;7.40;;;;;;;20.26;22.67;101604.45;103345;1256;96429;-68
2023/02/28 09:47:12;;;;;;;10.90;7.40;;;;;;;19.98;23.28;101606.59;103210;1254;137525;-68
2023/02/28 09:49:46;;;;;;;11.10;6.80;;;;;;;19.93;23.09;101606.67;103337;1251;107604;-70
2023/02/28 09:52:19;;;;;;;9.50;6.60;;;;;;;19.71;23.31;101605.27;103297;1257;96429;-70
2023/02/28 09:54:47;;;;;;;10.40;6.40;;;;;;;19.66;23.16;101608.38;103218;1257;109168;-70
2023/02/28 09:57:24;;;;;;;8.80;6.50;;;;;;;19.34;23.02;101610.02;103258;1254;96361;-70
2023/02/28 10:00:04;;;;;;;10.30;6.50;;;;;;;19.14;23.53;101608.48;103237;1254;137508;-70
2023/02/28 10:03:01;;;;;;;9.40;7.20;;;;;;;19.31;23.48;101611.23;103124;1254;107811;-70
2023/02/28 10:05:34;;;;;;;9.00;6.30;;;;;;;19.39;23.67;101610.85;103284;1256;137811;-68
2023/02/28 10:08:08;;;;;;;12.80;7.40;;;;;;;19.44;23.72;101611.86;103333;1254;109307;-69
2023/02/28 10:10:41;;;;;;;15.00;7.70;;;;;;;19.44;23.59;101614.30;103257;1257;138171;-69
2023/02/28 10:13:16;;;;;;;12.40;7.90;;;;;;;19.14;22.73;101616.60;103255;1254;111107;-69
2023/02/28 10:15:46;;;;;;;16.30;8.50;;;;;;;18.64;23.07;101613.75;103291;1256;107734;-69
2023/02/28 10:18:17;;;;;;;10.80;7.50;;;;;;;18.59;23.97;101613.94;103456;1256;138024;-68
2023/02/28 10:20:46;;;;;;;10.60;7.90;;;;;;;18.58;24.01;101612.40;104194;1254;107259;-72
2023/02/28 10:23:18;;;;;;;16.00;8.20;;;;;;;18.64;24.00;101610.90;103248;1253;138057;-69
2023/02/28 10:25:51;;;;;;;10.10;7.70;;;;;;;18.53;23.65;101608.55;103472;1255;109702;-74
2023/02/28 10:28:19;;;;;;;11.40;8.00;;;;;;;18.34;23.97;101609.74;103193;1254;138538;-70
2023/02/28 10:30:48;;;;;;;11.10;8.00;;;;;;;18.37;24.19;101608.55;103326;1256;96502;-69
2023/02/28 10:33:23;;;;;;;11.90;7.60;;;;;;;18.40;24.03;101607.38;103422;1252;107006;-69
2023/02/28 10:35:51;;;;;;;10.30;7.50;;;;;;;18.34;23.74;101607.61;103267;1254;138706;-69
2023/02/28 10:38:22;;;;;;;12.00;7.80;;;;;;;17.73;23.26;101614.38;103352;1254;108439;-69
2023/02/28 10:40:49;;;;;;;12.40;7.90;;;;;;;17.28;23.64;101616.15;103257;1256;137969;-70
2023/02/28 10:43:24;;;;;;;13.80;9.20;;;;;;;16.92;23.88;101609.77;103405;1252;96435;-70
2023/02/28 10:46:15;;;;;;;15.40;8.20;;;;;;;16.69;24.44;101606.56;104885;1251;108369;-69
2023/02/28 10:48:45;;;;;;;13.60;8.20;;;;;;;16.63;24.74;101606.58;103420;1253;96353;-69
2023/02/28 10:51:14;;;;;;;13.60;8.60;;;;;;;16.42;24.66;101605.01;103369;1256;109819;-70
2023/02/28 10:53:51;;;;;;;11.50;9.00;;;;;;;16.19;24.86;101610.39;103251;1257;137885;-69
2023/02/28 10:56:29;;;;;;;13.20;8.40;;;;;;;16.12;24.90;101611.66;103324;1254;96442;-69
2023/02/28 10:58:59;;;;;;;9.90;8.60;;;;;;;15.87;25.02;101607.92;103145;1257;137849;-69
2023/02/28 11:01:43;;;;;;;14.40;8.80;;;;;;;15.85;25.52;101603.63;102629;1254;1003810;-68
2023/02/28 11:04:39;;;;;;;11.60;8.40;;;;;;;15.80;25.19;101603.08;103369;1253;109117;-69
2023/02/28 11:07:20;;;;;;;11.10;9.00;;;;;;;15.07;25.01;101605.80;103290;1253;107931;-67
2023/02/28 11:10:00;;;;;;;10.50;9.20;;;;;;;14.66;25.59;101596.84;103432;1256;96476;-69
2023/02/28 11:12:30;;;;;;;13.50;9.00;;;;;;;14.50;25.95;101593.40;103216;1254;139070;-70
2023/02/28 11:15:25;;;;;;;12.60;8.80;;;;;;;14.51;26.48;101589.70;103335;1256;96428;-69
2023/02/28 11:17:59;;;;;;;11.50;9.00;;;;;;;14.68;26.59;101582.77;103819;1254;137744;-69
2023/02/28 11:20:29;;;;;;;13.30;9.50;;;;;;;14.85;26.96;101584.37;104575;1254;107381;-70
2023/02/28 11:22:58;;;;;;;11.60;8.80;;;;;;;15.04;26.97;101579.27;103979;1255;138001;-71
2023/02/28 11:25:27;;;;;;;13.20;9.40;;;;;;;15.00;26.65;101579.91;103304;1253;106791;-69
2023/02/28 11:27:57;;;;;;;12.00;8.90;;;;;;;14.86;26.49;101571.05;103309;1257;96524;-68
2023/02/28 11:30:33;;;;;;;14.60;9.20;;;;;;;14.64;26.27;101570.44;103043;1254;137714;-67
2023/02/28 11:33:01;;;;;;;13.20;8.90;;;;;;;14.31;26.68;101570.97;103099;1257;107702;-67
2023/02/28 11:35:35;;;;;;;13.00;9.10;;;;;;;14.11;26.56;101568.35;103100;1257;137794;-67